»·PEaware :: 223PF L52-L88

223PF :: L52-L88

FLIGHT INFORMATION

Flight Status: Arrived
Operator: Unknown
More flights by this operator :: More flights under this callsign
Pilot: Tyler J. (20701)
Aircraft: CESSNA 172 SKYHAWK
(C172)
More flights by this aircraft type
Origin: L52 Oceano Co
United States
Destination: L88 New Cuyama
United States
More flights between these airports :: More routes between these airports
Route: FLW
File this flight plan on PilotEdge
Remarks: CAT 1
Altitude:
(Current/Filed)
3,500ft
Speed:
(Current/Filed)
110kts
Departed: 05-Oct-18 09:27 AM
Arrived: 05-Oct-18 10:02 AM
Distance/Time
Traveled:
47nm/0:35
Distance/Time
To Go:
Arrived

Flight Plot

Page will automatically refresh every two minutes.


Map Options




Map Legend


Flown Route
Filed Route
Departure Airport
Arrival Airport
Navaid (VOR, NDB)
Fix

Horizontal Profiles

Position Reports

Time Latitude Longitude Heading Altitude Ground
Speed
05-Oct-18 09:10 35.103381 -120.624688 212 18ft 0kts
05-Oct-18 09:11 35.103381 -120.624688 212 18ft 0kts
05-Oct-18 09:12 35.103381 -120.624688 212 18ft 0kts
05-Oct-18 09:13 35.103381 -120.624689 212 18ft 0kts
05-Oct-18 09:14 35.103381 -120.624689 212 18ft 0kts
05-Oct-18 09:15 35.103381 -120.624689 212 18ft 0kts
05-Oct-18 09:16 35.103381 -120.624689 212 18ft 0kts
05-Oct-18 09:17 35.103381 -120.624689 212 18ft 0kts
05-Oct-18 09:18 35.103381 -120.624689 212 18ft 0kts
05-Oct-18 09:19 35.103381 -120.624689 212 18ft 0kts
05-Oct-18 09:20 35.103381 -120.624689 212 18ft 0kts
05-Oct-18 09:21 35.103381 -120.624689 212 18ft 0kts
05-Oct-18 09:22 35.103381 -120.624689 212 18ft 0kts
05-Oct-18 09:23 35.102010 -120.622326 149 18ft 0kts
05-Oct-18 09:24 35.100129 -120.620677 123 18ft 20kts
05-Oct-18 09:25 35.099688 -120.619825 124 18ft 0kts
05-Oct-18 09:26 35.099688 -120.619824 124 18ft 0kts
05-Oct-18 09:27 35.099688 -120.619825 124 18ft 0kts
05-Oct-18 09:28 35.100330 -120.620129 297 18ft 31kts
05-Oct-18 09:29 35.110405 -120.638664 302 610ft 71kts
05-Oct-18 09:30 35.122367 -120.659644 331 1335ft 77kts
05-Oct-18 09:31 35.138268 -120.647885 84 2046ft 78kts
05-Oct-18 09:32 35.135160 -120.621509 102 2715ft 78kts
05-Oct-18 09:33 35.129585 -120.595270 106 3335ft 80kts
05-Oct-18 09:34 35.127160 -120.563932 71 3511ft 121kts
05-Oct-18 09:35 35.126388 -120.522619 95 3508ft 118kts
05-Oct-18 09:36 35.123852 -120.482655 93 3508ft 118kts
05-Oct-18 09:37 35.121650 -120.442653 93 3508ft 118kts
05-Oct-18 09:38 35.119545 -120.402658 93 3508ft 118kts
05-Oct-18 09:39 35.117484 -120.362727 93 3508ft 118kts
05-Oct-18 09:40 35.115510 -120.324517 93 3508ft 118kts
05-Oct-18 09:41 35.113442 -120.284500 93 3508ft 118kts
05-Oct-18 09:42 35.111366 -120.244437 93 3508ft 118kts
05-Oct-18 09:43 35.109188 -120.204496 93 3508ft 118kts
05-Oct-18 09:44 35.106874 -120.164565 94 3508ft 118kts
05-Oct-18 09:45 35.104416 -120.124546 94 3508ft 118kts
05-Oct-18 09:46 35.101829 -120.084625 94 3508ft 118kts
05-Oct-18 09:47 35.090230 -120.048015 118 3508ft 118kts
05-Oct-18 09:48 35.075074 -120.012364 116 3508ft 118kts
05-Oct-18 09:49 35.060242 -119.976719 116 3508ft 118kts
05-Oct-18 09:50 35.046147 -119.942822 116 3670ft 106kts
05-Oct-18 09:51 35.032259 -119.909447 116 3663ft 112kts
05-Oct-18 09:52 35.017947 -119.875097 116 3663ft 114kts
05-Oct-18 09:53 35.003195 -119.841693 119 3521ft 100kts
05-Oct-18 09:54 34.990525 -119.812753 116 3657ft 103kts
05-Oct-18 09:55 34.979580 -119.785384 114 3795ft 112kts
05-Oct-18 09:56 34.962807 -119.741645 107 3633ft 116kts
05-Oct-18 09:57 34.957158 -119.710909 99 3559ft 109kts
05-Oct-18 09:58 34.938834 -119.693180 183 3566ft 102kts
05-Oct-18 09:59 34.910743 -119.705952 255 3432ft 87kts
05-Oct-18 10:00 34.924603 -119.703416 35 3258ft 92kts
05-Oct-18 10:01 34.929595 -119.678583 114 2927ft 80kts
05-Oct-18 10:02 34.933678 -119.666333 273 2482ft 83kts
05-Oct-18 10:03 34.940923 -119.688186 297 2165ft 51kts
05-Oct-18 10:04 34.942761 -119.691170 37 2155ft 1kts
05-Oct-18 10:05 34.942665 -119.690468 11 2156ft 0kts
05-Oct-18 10:06 34.942665 -119.690468 11 2156ft 0kts
05-Oct-18 10:07 34.942665 -119.690468 11 2156ft 0kts
05-Oct-18 10:08 34.942665 -119.690468 11 2156ft 0kts
05-Oct-18 10:09 34.942665 -119.690468 11 2156ft 0kts
05-Oct-18 10:10 34.942665 -119.690468 11 2156ft 0kts
05-Oct-18 10:11 34.942665 -119.690468 11 2156ft 0kts

Navigation Log

Ident Type
Flight plan parsing failed, navigation log unavailable